Time;durP1;ratioP1;P1;durP2;ratioP2;P2;SDS_P1;SDS_P2;PMS_P1;PMS_P2;Temp;Humidity;BMP_temperature;BMP_pressure;BME280_temperature;BME280_humidity;BME280_pressure;Samples;Min_cycle;Max_cycle;Signal;HPM_P1;HPM_P2
2022/04/04 00:01:52;;;;;;;21.75;12.93;;;;;;;;;;5032477;28;20041;-71
2022/04/04 00:04:20;;;;;;;21.55;14.32;;;;;;;;;;5035112;28;20033;-70
2022/04/04 00:06:46;;;;;;;19.30;13.48;;;;;;;;;;5030269;28;20021;-71
2022/04/04 00:09:12;;;;;;;22.83;14.65;;;;;;;;;;5033339;28;20026;-70
2022/04/04 00:11:38;;;;;;;20.67;14.68;;;;;;;;;;5035347;28;20029;-70
2022/04/04 00:14:04;;;;;;;22.63;15.35;;;;;;;;;;5033638;28;20068;-70
2022/04/04 00:16:32;;;;;;;24.25;15.93;;;;;;;;;;5033397;28;20013;-69
2022/04/04 00:18:59;;;;;;;32.08;18.92;;;;;;;;;;5033080;28;20049;-71
2022/04/04 00:21:27;;;;;;;37.45;20.00;;;;;;;;;;5038001;28;20124;-71
2022/04/04 00:23:53;;;;;;;35.60;19.73;;;;;;;;;;5045443;28;20031;-73
2022/04/04 00:26:19;;;;;;;35.47;18.10;;;;;;;;;;5053654;28;20032;-74
2022/04/04 00:28:45;;;;;;;37.63;18.50;;;;;;;;;;5036492;28;20025;-72
2022/04/04 00:31:15;;;;;;;38.65;19.17;;;;;;;;;;5035690;28;20100;-70
2022/04/04 00:33:42;;;;;;;35.38;18.48;;;;;;;;;;5031518;28;20030;-71
2022/04/04 00:36:08;;;;;;;33.58;17.58;;;;;;;;;;5031311;28;20029;-71
2022/04/04 00:38:35;;;;;;;32.88;17.58;;;;;;;;;;5033852;28;20031;-70
2022/04/04 00:41:01;;;;;;;38.05;18.48;;;;;;;;;;5033223;28;20048;-70
2022/04/04 00:43:27;;;;;;;38.80;18.50;;;;;;;;;;5048994;28;20043;-71
2022/04/04 00:45:53;;;;;;;33.35;17.30;;;;;;;;;;5037350;28;20080;-71
2022/04/04 00:48:19;;;;;;;29.88;15.95;;;;;;;;;;5032709;28;20099;-70
2022/04/04 00:50:45;;;;;;;22.42;14.38;;;;;;;;;;5032480;28;20030;-70
2022/04/04 00:53:12;;;;;;;25.65;15.07;;;;;;;;;;5039816;28;20092;-70
2022/04/04 00:55:46;;;;;;;21.00;13.38;;;;;;;;;;5032335;28;20044;-72
2022/04/04 00:58:15;;;;;;;21.38;13.80;;;;;;;;;;5033517;28;20021;-69
2022/04/04 01:00:42;;;;;;;20.08;13.57;;;;;;;;;;5032529;28;20026;-71
2022/04/04 01:03:08;;;;;;;26.33;14.07;;;;;;;;;;5050248;28;20120;-70
2022/04/04 01:05:34;;;;;;;19.67;13.32;;;;;;;;;;5052814;28;20029;-70
2022/04/04 01:08:00;;;;;;;19.50;12.18;;;;;;;;;;5042519;28;20025;-70
2022/04/04 01:10:28;;;;;;;17.80;12.45;;;;;;;;;;5029475;28;20398;-70
2022/04/04 01:12:55;;;;;;;20.60;13.20;;;;;;;;;;5031834;28;20021;-69
2022/04/04 01:15:23;;;;;;;18.73;12.38;;;;;;;;;;5045148;28;20032;-71
2022/04/04 01:17:52;;;;;;;17.75;12.88;;;;;;;;;;5053989;28;20025;-75
2022/04/04 01:20:18;;;;;;;18.77;13.52;;;;;;;;;;5044027;28;20148;-70
2022/04/04 01:22:48;;;;;;;18.63;13.80;;;;;;;;;;5031510;28;20064;-70
2022/04/04 01:25:14;;;;;;;22.00;13.38;;;;;;;;;;5059096;28;20043;-69
2022/04/04 01:27:45;;;;;;;19.10;13.40;;;;;;;;;;5048995;28;20086;-71
2022/04/04 01:30:11;;;;;;;17.83;13.35;;;;;;;;;;5032115;28;20087;-69
2022/04/04 01:32:37;;;;;;;18.30;12.70;;;;;;;;;;5032842;28;20072;-70
2022/04/04 01:35:05;;;;;;;19.55;12.35;;;;;;;;;;5034339;28;20482;-70
2022/04/04 01:37:34;;;;;;;20.63;13.25;;;;;;;;;;5042009;28;20057;-71
2022/04/04 01:40:02;;;;;;;17.77;12.65;;;;;;;;;;5030125;28;20025;-70
2022/04/04 01:42:31;;;;;;;18.55;12.60;;;;;;;;;;5035965;28;20413;-70
2022/04/04 01:44:57;;;;;;;19.48;13.10;;;;;;;;;;5049257;28;20029;-74
2022/04/04 01:47:23;;;;;;;19.38;12.77;;;;;;;;;;5036326;28;20014;-70
2022/04/04 01:49:50;;;;;;;19.45;13.27;;;;;;;;;;5038263;28;20374;-70
2022/04/04 01:52:16;;;;;;;22.30;13.10;;;;;;;;;;5039716;28;20040;-69
2022/04/04 01:54:42;;;;;;;16.85;13.07;;;;;;;;;;5043998;28;20022;-69
2022/04/04 01:57:08;;;;;;;19.02;13.05;;;;;;;;;;5040611;28;20394;-70
2022/04/04 01:59:38;;;;;;;22.83;13.13;;;;;;;;;;5047832;28;20115;-73
2022/04/04 02:02:04;;;;;;;24.95;14.32;;;;;;;;;;5058410;28;20384;-71
2022/04/04 02:04:32;;;;;;;29.85;14.60;;;;;;;;;;5040422;28;20022;-70
2022/04/04 02:06:59;;;;;;;22.85;14.85;;;;;;;;;;5036094;28;20025;-70
2022/04/04 02:09:33;;;;;;;23.20;14.05;;;;;;;;;;5040977;28;20397;-70
2022/04/04 02:12:00;;;;;;;20.38;13.57;;;;;;;;;;5035419;28;20479;-72
2022/04/04 02:14:26;;;;;;;22.27;13.80;;;;;;;;;;5035776;28;20386;-70
2022/04/04 02:16:52;;;;;;;23.83;13.32;;;;;;;;;;5039498;28;20389;-69
2022/04/04 02:19:20;;;;;;;21.95;13.80;;;;;;;;;;5040882;28;20444;-72
2022/04/04 02:21:48;;;;;;;19.25;12.50;;;;;;;;;;5045190;28;20060;-70
2022/04/04 02:24:14;;;;;;;23.30;13.85;;;;;;;;;;5035799;28;20041;-69
2022/04/04 02:26:40;;;;;;;19.67;13.05;;;;;;;;;;5035887;28;20048;-71
2022/04/04 02:29:12;;;;;;;21.60;13.05;;;;;;;;;;5042143;28;20021;-69
2022/04/04 02:31:40;;;;;;;19.40;13.80;;;;;;;;;;5036971;28;20060;-72
2022/04/04 02:34:08;;;;;;;24.58;14.15;;;;;;;;;;5036171;28;20078;-69
2022/04/04 02:36:34;;;;;;;27.20;16.60;;;;;;;;;;5047070;28;20025;-70
2022/04/04 02:39:02;;;;;;;28.15;16.92;;;;;;;;;;5055277;28;20025;-70
2022/04/04 02:41:28;;;;;;;24.05;16.60;;;;;;;;;;5043497;28;20052;-69
2022/04/04 02:43:56;;;;;;;29.88;18.60;;;;;;;;;;5038204;28;20036;-69
2022/04/04 02:46:27;;;;;;;26.92;18.13;;;;;;;;;;5033525;28;20525;-69
2022/04/04 02:48:53;;;;;;;26.63;17.95;;;;;;;;;;5035500;28;20038;-69
2022/04/04 02:51:19;;;;;;;28.08;17.13;;;;;;;;;;5035436;28;20026;-70
2022/04/04 02:53:45;;;;;;;26.80;17.50;;;;;;;;;;5035361;28;20025;-69
2022/04/04 02:59:01;;;;;;;31.25;20.23;;;;;;;;;;5036279;28;20395;-70
2022/04/04 03:01:27;;;;;;;33.92;18.58;;;;;;;;;;5034913;28;20044;-70
2022/04/04 03:03:56;;;;;;;24.20;16.60;;;;;;;;;;5050882;28;20018;-69
2022/04/04 03:06:22;;;;;;;23.17;15.20;;;;;;;;;;5034670;28;20029;-69
2022/04/04 03:08:49;;;;;;;25.80;15.40;;;;;;;;;;5035780;28;20055;-70
2022/04/04 03:11:15;;;;;;;23.40;15.50;;;;;;;;;;5039959;28;20025;-70
2022/04/04 03:13:41;;;;;;;25.10;14.13;;;;;;;;;;5034098;28;20025;-69
2022/04/04 03:16:09;;;;;;;21.63;13.40;;;;;;;;;;5034030;28;20032;-69
2022/04/04 03:18:36;;;;;;;22.30;12.57;;;;;;;;;;5037453;28;20628;-70
2022/04/04 03:21:03;;;;;;;24.35;12.40;;;;;;;;;;5050230;28;20104;-70
2022/04/04 03:23:30;;;;;;;18.27;11.48;;;;;;;;;;5045142;28;20105;-70
2022/04/04 03:25:56;;;;;;;18.33;11.68;;;;;;;;;;5032572;28;20049;-69
2022/04/04 03:28:23;;;;;;;18.00;11.60;;;;;;;;;;5034411;28;20030;-69
2022/04/04 03:30:49;;;;;;;19.40;12.35;;;;;;;;;;5042332;28;20541;-70
2022/04/04 03:33:16;;;;;;;18.33;12.10;;;;;;;;;;5054868;28;20087;-69
2022/04/04 03:35:42;;;;;;;21.30;12.13;;;;;;;;;;5054300;28;20023;-70
2022/04/04 03:38:10;;;;;;;19.13;11.48;;;;;;;;;;5053635;28;20025;-71
2022/04/04 03:40:37;;;;;;;21.35;12.23;;;;;;;;;;5043850;28;20025;-70
2022/04/04 03:43:03;;;;;;;20.38;11.23;;;;;;;;;;5038471;28;20033;-69
2022/04/04 03:45:30;;;;;;;19.60;11.75;;;;;;;;;;5044296;28;20026;-69
2022/04/04 03:47:59;;;;;;;20.45;12.52;;;;;;;;;;5035373;28;20026;-70
2022/04/04 03:50:26;;;;;;;21.63;13.07;;;;;;;;;;5032872;28;20496;-69
2022/04/04 03:52:55;;;;;;;18.13;12.35;;;;;;;;;;5047726;28;20033;-70
2022/04/04 03:55:25;;;;;;;21.08;13.68;;;;;;;;;;5046497;28;20108;-70
2022/04/04 03:57:51;;;;;;;24.60;13.68;;;;;;;;;;5033307;28;20485;-69
2022/04/04 04:00:20;;;;;;;17.60;12.32;;;;;;;;;;5033415;28;20089;-70
2022/04/04 04:02:46;;;;;;;19.40;11.80;;;;;;;;;;5041985;28;20525;-70
2022/04/04 04:05:13;;;;;;;22.15;12.23;;;;;;;;;;5036546;28;20029;-69
2022/04/04 04:07:39;;;;;;;20.88;11.88;;;;;;;;;;5033587;28;20032;-69
2022/04/04 04:10:05;;;;;;;18.05;11.20;;;;;;;;;;5033139;28;20483;-70
2022/04/04 04:12:31;;;;;;;17.92;11.48;;;;;;;;;;5034524;28;20072;-70
2022/04/04 04:14:58;;;;;;;18.63;11.18;;;;;;;;;;5036377;28;20018;-69
2022/04/04 04:17:25;;;;;;;17.77;11.00;;;;;;;;;;5035745;28;20102;-71
2022/04/04 04:22:37;;;;;;;17.63;11.65;;;;;;;;;;5031968;28;20080;-71
2022/04/04 04:25:03;;;;;;;17.83;11.50;;;;;;;;;;5031295;28;20064;-71
2022/04/04 04:27:30;;;;;;;19.05;12.02;;;;;;;;;;5033287;28;20029;-74
2022/04/04 04:29:56;;;;;;;20.90;12.40;;;;;;;;;;5033619;28;20018;-70
2022/04/04 04:32:22;;;;;;;16.98;10.93;;;;;;;;;;5033659;28;20036;-69
2022/04/04 04:34:49;;;;;;;15.73;10.20;;;;;;;;;;5041220;28;20060;-69
2022/04/04 04:37:16;;;;;;;15.88;10.63;;;;;;;;;;5022234;28;20112;-71
2022/04/04 04:39:42;;;;;;;16.30;10.50;;;;;;;;;;5032480;28;20030;-71
2022/04/04 04:42:08;;;;;;;15.40;10.95;;;;;;;;;;5031092;28;20479;-71
2022/04/04 04:44:34;;;;;;;18.45;10.40;;;;;;;;;;5016436;28;20038;-69
2022/04/04 04:47:00;;;;;;;16.77;11.25;;;;;;;;;;5013636;28;20049;-70
2022/04/04 04:49:26;;;;;;;16.23;10.82;;;;;;;;;;5013665;28;20065;-70
2022/04/04 04:51:53;;;;;;;19.58;10.18;;;;;;;;;;5020360;28;20021;-68
2022/04/04 04:54:19;;;;;;;21.27;11.27;;;;;;;;;;5027094;28;20100;-71
2022/04/04 04:56:46;;;;;;;18.30;10.60;;;;;;;;;;5022374;28;20030;-74
2022/04/04 04:59:13;;;;;;;15.20;10.25;;;;;;;;;;5016291;28;20411;-69
2022/04/04 05:01:39;;;;;;;19.30;9.60;;;;;;;;;;5032662;28;20043;-70
2022/04/04 05:04:05;;;;;;;21.70;11.57;;;;;;;;;;5053610;28;20028;-70
2022/04/04 05:06:31;;;;;;;18.67;10.43;;;;;;;;;;5051065;28;20442;-71
2022/04/04 05:09:00;;;;;;;20.85;10.30;;;;;;;;;;5053038;28;20053;-75
2022/04/04 05:11:27;;;;;;;16.60;10.80;;;;;;;;;;5052650;28;20021;-72
2022/04/04 05:13:53;;;;;;;16.08;10.40;;;;;;;;;;5038099;28;20040;-69
2022/04/04 05:16:19;;;;;;;17.23;10.32;;;;;;;;;;5032142;28;20017;-71
2022/04/04 05:18:45;;;;;;;16.83;10.85;;;;;;;;;;5034360;28;20060;-70
2022/04/04 05:21:13;;;;;;;17.95;10.73;;;;;;;;;;5028480;28;20414;-71
2022/04/04 05:23:39;;;;;;;18.00;11.43;;;;;;;;;;5032269;28;20459;-70
2022/04/04 05:26:06;;;;;;;15.55;10.77;;;;;;;;;;5029871;28;20036;-71
2022/04/04 05:28:34;;;;;;;42.58;23.27;;;;;;;;;;5036864;28;20026;-71
2022/04/04 05:31:04;;;;;;;36.58;18.70;;;;;;;;;;5025971;28;20033;-75
2022/04/04 05:33:30;;;;;;;24.33;14.63;;;;;;;;;;5020192;28;20026;-76
2022/04/04 05:35:56;;;;;;;28.88;14.52;;;;;;;;;;5029314;28;20023;-70
2022/04/04 05:38:22;;;;;;;21.45;13.73;;;;;;;;;;5031855;28;20055;-70
2022/04/04 05:40:48;;;;;;;23.50;13.93;;;;;;;;;;5029344;28;20022;-74
2022/04/04 05:43:18;;;;;;;22.20;16.20;;;;;;;;;;5028657;28;20037;-75
2022/04/04 05:45:44;;;;;;;30.25;15.65;;;;;;;;;;5028682;28;20024;-74
2022/04/04 05:48:11;;;;;;;23.05;13.60;;;;;;;;;;5031478;28;20371;-73
2022/04/04 05:50:37;;;;;;;22.20;13.60;;;;;;;;;;5030493;28;20039;-75
2022/04/04 05:53:03;;;;;;;18.33;11.98;;;;;;;;;;5031824;28;20540;-70
2022/04/04 05:55:31;;;;;;;18.13;12.45;;;;;;;;;;5032132;28;20036;-75
2022/04/04 05:57:57;;;;;;;17.40;11.48;;;;;;;;;;5032077;28;20025;-71
2022/04/04 06:00:24;;;;;;;21.73;11.50;;;;;;;;;;5029110;28;20037;-70
2022/04/04 06:02:50;;;;;;;25.30;12.82;;;;;;;;;;5031561;28;20144;-70
2022/04/04 06:05:16;;;;;;;20.27;11.50;;;;;;;;;;5028921;28;20386;-70
2022/04/04 06:07:42;;;;;;;22.80;11.98;;;;;;;;;;5040369;28;20029;-71
2022/04/04 06:10:09;;;;;;;22.10;13.88;;;;;;;;;;5032600;28;20444;-71
2022/04/04 06:12:38;;;;;;;83.78;54.08;;;;;;;;;;5029943;28;20383;-84
2022/04/04 06:15:05;;;;;;;45.28;36.03;;;;;;;;;;5027398;28;20022;-87
2022/04/04 06:17:38;;;;;;;57.50;36.35;;;;;;;;;;5035358;28;20029;-86
2022/04/04 06:20:05;;;;;;;15.45;11.60;;;;;;;;;;5027674;28;20038;-80
2022/04/04 06:22:36;;;;;;;16.25;11.70;;;;;;;;;;5029931;28;20037;-69
2022/04/04 06:25:02;;;;;;;17.52;11.10;;;;;;;;;;5032899;28;20047;-76
2022/04/04 06:27:28;;;;;;;18.98;12.55;;;;;;;;;;5031566;28;20192;-83
2022/04/04 06:29:57;;;;;;;19.10;13.85;;;;;;;;;;5033085;28;20029;-80
2022/04/04 06:32:24;;;;;;;21.48;12.57;;;;;;;;;;5041932;28;20040;-76
2022/04/04 06:34:50;;;;;;;16.33;13.15;;;;;;;;;;5042414;28;20025;-77
2022/04/04 06:37:16;;;;;;;20.05;13.52;;;;;;;;;;5036803;28;20053;-77
2022/04/04 06:39:43;;;;;;;20.27;14.45;;;;;;;;;;5028382;28;20391;-84
2022/04/04 06:42:09;;;;;;;20.70;16.00;;;;;;;;;;5038101;28;20182;-78
2022/04/04 06:44:35;;;;;;;18.92;14.88;;;;;;;;;;5037247;28;20415;-80
2022/04/04 06:47:01;;;;;;;21.70;14.18;;;;;;;;;;5035530;28;20106;-69
2022/04/04 06:49:27;;;;;;;20.55;15.38;;;;;;;;;;5035823;28;20113;-81
2022/04/04 06:51:53;;;;;;;21.05;14.65;;;;;;;;;;5037121;28;20379;-76
2022/04/04 06:54:20;;;;;;;18.00;13.82;;;;;;;;;;5033653;28;20041;-79
2022/04/04 06:56:49;;;;;;;18.88;13.75;;;;;;;;;;5035835;28;20101;-78
2022/04/04 06:59:18;;;;;;;21.27;13.93;;;;;;;;;;5047016;28;20021;-76
2022/04/04 07:01:44;;;;;;;19.83;14.70;;;;;;;;;;5036476;28;20033;-81
2022/04/04 07:04:11;;;;;;;19.88;15.27;;;;;;;;;;5038877;28;20427;-77
2022/04/04 07:06:37;;;;;;;22.02;15.23;;;;;;;;;;5031752;28;20018;-71
2022/04/04 07:09:03;;;;;;;21.15;14.40;;;;;;;;;;5033608;28;20164;-72
2022/04/04 07:11:29;;;;;;;22.40;16.00;;;;;;;;;;5034307;28;20042;-71
2022/04/04 07:13:58;;;;;;;20.75;14.90;;;;;;;;;;5034719;28;20025;-69
2022/04/04 07:16:25;;;;;;;22.83;16.27;;;;;;;;;;5030226;28;20049;-76
2022/04/04 07:18:52;;;;;;;25.35;15.07;;;;;;;;;;5046961;28;20487;-69
2022/04/04 07:21:18;;;;;;;24.25;15.75;;;;;;;;;;5041208;28;20036;-76
2022/04/04 07:23:44;;;;;;;21.35;14.50;;;;;;;;;;5041702;28;20034;-68
2022/04/04 07:26:10;;;;;;;20.33;13.82;;;;;;;;;;5030583;28;20022;-69
2022/04/04 07:28:38;;;;;;;18.05;13.40;;;;;;;;;;5034702;28;20390;-68
2022/04/04 07:31:07;;;;;;;22.23;14.05;;;;;;;;;;5028828;28;20053;-74
2022/04/04 07:33:33;;;;;;;17.17;12.70;;;;;;;;;;5038552;28;20040;-69
2022/04/04 07:35:59;;;;;;;19.40;13.70;;;;;;;;;;5034973;28;20032;-67
2022/04/04 07:38:25;;;;;;;18.52;12.73;;;;;;;;;;5045607;28;20157;-69
2022/04/04 07:40:54;;;;;;;15.85;12.35;;;;;;;;;;5044811;28;20025;-69
2022/04/04 07:43:20;;;;;;;17.92;12.70;;;;;;;;;;5036953;28;20029;-67
2022/04/04 07:45:46;;;;;;;15.10;11.20;;;;;;;;;;5034336;28;20021;-73
2022/04/04 07:48:14;;;;;;;16.10;12.63;;;;;;;;;;5044142;28;20031;-77
2022/04/04 07:50:43;;;;;;;18.23;12.00;;;;;;;;;;5042479;28;20025;-67
2022/04/04 07:53:09;;;;;;;19.50;13.93;;;;;;;;;;5042269;28;20032;-68
2022/04/04 07:55:36;;;;;;;19.50;15.25;;;;;;;;;;5043454;28;20029;-71
2022/04/04 07:58:03;;;;;;;16.38;12.32;;;;;;;;;;5037274;28;20452;-67
2022/04/04 08:00:29;;;;;;;14.65;10.95;;;;;;;;;;5033500;28;20375;-74
2022/04/04 08:02:55;;;;;;;17.67;10.13;;;;;;;;;;5041656;28;20406;-68
2022/04/04 08:05:23;;;;;;;12.50;9.77;;;;;;;;;;5034596;28;20022;-72
2022/04/04 08:07:51;;;;;;;14.27;9.88;;;;;;;;;;5038303;28;20049;-68
2022/04/04 08:10:17;;;;;;;15.45;9.85;;;;;;;;;;5041392;28;20021;-68
2022/04/04 08:12:44;;;;;;;12.77;8.55;;;;;;;;;;5044711;28;20509;-69
2022/04/04 08:15:10;;;;;;;10.32;7.93;;;;;;;;;;5037346;28;20112;-67
2022/04/04 08:17:37;;;;;;;12.52;7.93;;;;;;;;;;5032634;28;20101;-67
2022/04/04 08:20:04;;;;;;;21.80;10.93;;;;;;;;;;5042732;28;20056;-67
2022/04/04 08:22:30;;;;;;;12.73;9.13;;;;;;;;;;5039175;28;20475;-68
2022/04/04 08:24:56;;;;;;;16.05;10.73;;;;;;;;;;5037294;28;20064;-68
2022/04/04 08:27:22;;;;;;;19.88;11.07;;;;;;;;;;5028755;28;20490;-66
2022/04/04 08:29:49;;;;;;;13.65;9.05;;;;;;;;;;5042062;28;20474;-72
2022/04/04 08:32:17;;;;;;;13.30;9.75;;;;;;;;;;5040798;28;20025;-68
2022/04/04 08:34:43;;;;;;;13.60;9.70;;;;;;;;;;5039211;28;20029;-71
2022/04/04 08:37:09;;;;;;;10.35;7.50;;;;;;;;;;5038092;28;20028;-68
2022/04/04 08:39:35;;;;;;;11.73;7.72;;;;;;;;;;5040428;28;20047;-66
2022/04/04 08:42:02;;;;;;;12.10;7.82;;;;;;;;;;5041594;28;20120;-71
2022/04/04 08:44:29;;;;;;;10.95;7.15;;;;;;;;;;5037465;28;20021;-68
2022/04/04 08:46:57;;;;;;;13.93;7.88;;;;;;;;;;5038298;28;20025;-67
2022/04/04 08:49:23;;;;;;;18.23;8.32;;;;;;;;;;5045617;28;20025;-68
2022/04/04 08:51:49;;;;;;;11.23;7.22;;;;;;;;;;5037159;28;20022;-68
2022/04/04 08:54:16;;;;;;;12.35;7.55;;;;;;;;;;5036154;28;20060;-82
2022/04/04 08:56:43;;;;;;;10.98;6.40;;;;;;;;;;5049802;28;20091;-70
2022/04/04 08:59:09;;;;;;;9.38;5.95;;;;;;;;;;5041526;28;20029;-79
2022/04/04 09:01:35;;;;;;;9.90;6.80;;;;;;;;;;5043768;28;20052;-70
2022/04/04 09:04:01;;;;;;;11.43;6.95;;;;;;;;;;5036650;28;20108;-67
2022/04/04 09:06:28;;;;;;;14.90;6.88;;;;;;;;;;5040766;28;20057;-68
2022/04/04 09:08:57;;;;;;;10.88;6.28;;;;;;;;;;5024357;28;20022;-67
2022/04/04 09:11:23;;;;;;;13.43;7.20;;;;;;;;;;5038898;28;20043;-76
2022/04/04 09:14:10;;;;;;;12.60;7.43;;;;;;;;;;5032572;28;20395;-69
2022/04/04 09:16:37;;;;;;;28.95;18.02;;;;;;;;;;5034702;28;20042;-68
2022/04/04 09:19:04;;;;;;;16.63;10.63;;;;;;;;;;5044645;28;20049;-70
2022/04/04 09:21:31;;;;;;;12.63;9.32;;;;;;;;;;5045508;28;20040;-68
2022/04/04 09:23:58;;;;;;;12.15;7.68;;;;;;;;;;5032530;28;20036;-70
2022/04/04 09:26:28;;;;;;;13.45;8.35;;;;;;;;;;5036395;28;20076;-70
2022/04/04 09:28:55;;;;;;;8.48;6.90;;;;;;;;;;5035539;28;20029;-69
2022/04/04 09:31:21;;;;;;;14.13;7.50;;;;;;;;;;5044340;28;20055;-69
2022/04/04 09:33:47;;;;;;;13.00;7.55;;;;;;;;;;5043816;28;20025;-68
2022/04/04 09:36:13;;;;;;;11.02;7.55;;;;;;;;;;5038608;28;20063;-67
2022/04/04 09:38:43;;;;;;;15.05;7.90;;;;;;;;;;5036901;28;20018;-66
2022/04/04 09:41:18;;;;;;;10.20;6.80;;;;;;;;;;5034413;28;20033;-68
2022/04/04 09:43:51;;;;;;;10.82;6.88;;;;;;;;;;5036349;28;20055;-68
2022/04/04 09:46:17;;;;;;;12.50;7.72;;;;;;;;;;5029180;28;20080;-73
2022/04/04 09:49:01;;;;;;;31.85;17.83;;;;;;;;;;5021678;28;20033;-69
2022/04/04 09:51:36;;;;;;;12.30;7.45;;;;;;;;;;5033678;28;20028;-68
2022/04/04 09:54:09;;;;;;;13.05;7.32;;;;;;;;;;5032965;28;20036;-69
2022/04/04 09:56:37;;;;;;;10.90;7.45;;;;;;;;;;5027011;28;20084;-74
2022/04/04 09:59:03;;;;;;;9.07;7.18;;;;;;;;;;5043306;28;20017;-68
2022/04/04 10:01:31;;;;;;;9.45;6.95;;;;;;;;;;5035913;28;20025;-71
2022/04/04 10:03:57;;;;;;;10.32;7.00;;;;;;;;;;5046051;28;20524;-69
2022/04/04 10:06:28;;;;;;;10.57;7.68;;;;;;;;;;5040100;28;20029;-67
2022/04/04 10:08:59;;;;;;;9.68;7.05;;;;;;;;;;5041688;28;20067;-68
2022/04/04 10:11:25;;;;;;;9.05;7.10;;;;;;;;;;5044608;28;20028;-68
2022/04/04 10:13:52;;;;;;;10.30;7.32;;;;;;;;;;5038332;28;21835;-76
2022/04/04 10:16:19;;;;;;;11.25;7.28;;;;;;;;;;5046821;28;20028;-79
2022/04/04 10:18:46;;;;;;;16.80;7.85;;;;;;;;;;5054315;28;20048;-77
2022/04/04 10:21:12;;;;;;;9.45;7.68;;;;;;;;;;5041333;28;20475;-69
2022/04/04 10:23:40;;;;;;;31.40;9.60;;;;;;;;;;5049917;28;20068;-67
2022/04/04 10:26:07;;;;;;;11.48;8.07;;;;;;;;;;5038719;28;20509;-76
2022/04/04 10:28:35;;;;;;;10.88;8.25;;;;;;;;;;5051369;28;20030;-75
2022/04/04 10:31:23;;;;;;;10.30;7.70;;;;;;;;;;5047310;28;20035;-73
2022/04/04 10:33:50;;;;;;;18.30;7.90;;;;;;;;;;5033815;28;20021;-75
2022/04/04 10:36:25;;;;;;;11.20;7.70;;;;;;;;;;5037592;28;20023;-74
2022/04/04 10:38:51;;;;;;;11.88;7.95;;;;;;;;;;5038680;28;20025;-76
2022/04/04 10:41:19;;;;;;;14.20;8.10;;;;;;;;;;5043545;28;20045;-74
2022/04/04 10:43:47;;;;;;;12.70;7.70;;;;;;;;;;5055708;28;20041;-71
2022/04/04 10:46:14;;;;;;;9.98;7.60;;;;;;;;;;5040410;28;20033;-75
2022/04/04 10:49:06;;;;;;;11.27;8.25;;;;;;;;;;5039505;28;20057;-75
2022/04/04 10:51:39;;;;;;;14.00;8.20;;;;;;;;;;5042768;28;20407;-77
2022/04/04 10:54:10;;;;;;;11.75;7.85;;;;;;;;;;5042101;28;20048;-71
2022/04/04 10:56:39;;;;;;;10.43;8.13;;;;;;;;;;5040146;28;20495;-70
2022/04/04 10:59:17;;;;;;;11.75;8.02;;;;;;;;;;5048391;28;20054;-69
2022/04/04 11:01:45;;;;;;;10.95;7.75;;;;;;;;;;5042023;28;20429;-67
2022/04/04 11:04:30;;;;;;;13.48;8.45;;;;;;;;;;5036649;28;20033;-77
2022/04/04 11:09:55;;;;;;;13.77;8.50;;;;;;;;;;5038131;28;20036;-68
2022/04/04 11:12:22;;;;;;;13.82;9.65;;;;;;;;;;5034203;28;20057;-74
2022/04/04 11:14:57;;;;;;;9.30;7.55;;;;;;;;;;5031534;28;20037;-76
2022/04/04 11:17:30;;;;;;;9.82;7.32;;;;;;;;;;5035392;28;20558;-77
2022/04/04 11:20:10;;;;;;;10.85;8.35;;;;;;;;;;5014739;28;20046;-72
2022/04/04 11:22:41;;;;;;;11.43;8.20;;;;;;;;;;5030887;28;20102;-72
2022/04/04 11:25:08;;;;;;;13.98;8.00;;;;;;;;;;5016827;28;20071;-76
2022/04/04 11:27:39;;;;;;;12.10;7.88;;;;;;;;;;5033639;28;20034;-78
2022/04/04 11:30:06;;;;;;;17.67;8.48;;;;;;;;;;5036508;28;20055;-83
2022/04/04 11:32:40;;;;;;;9.65;8.10;;;;;;;;;;5045497;28;20048;-81
2022/04/04 11:35:11;;;;;;;12.48;9.27;;;;;;;;;;5029484;28;20482;-85
2022/04/04 11:37:41;;;;;;;17.17;12.40;;;;;;;;;;5040020;28;20029;-74
2022/04/04 11:40:13;;;;;;;21.05;18.83;;;;;;;;;;5033803;28;20063;-75
2022/04/04 11:42:42;;;;;;;15.73;12.07;;;;;;;;;;5032888;28;20467;-74
2022/04/04 11:45:09;;;;;;;24.05;14.20;;;;;;;;;;5033544;28;20028;-74
2022/04/04 11:47:41;;;;;;;9.68;7.63;;;;;;;;;;5032669;28;20029;-74
2022/04/04 11:50:08;;;;;;;10.75;7.72;;;;;;;;;;5033246;28;20021;-75
2022/04/04 11:53:06;;;;;;;9.52;8.32;;;;;;;;;;5029875;28;20140;-74
2022/04/04 11:55:36;;;;;;;10.23;7.95;;;;;;;;;;5038650;28;20060;-77
2022/04/04 11:58:12;;;;;;;11.38;8.77;;;;;;;;;;5034022;28;20048;-77
2022/04/04 12:00:53;;;;;;;12.07;8.63;;;;;;;;;;5031577;28;20104;-75
2022/04/04 12:03:21;;;;;;;11.88;9.20;;;;;;;;;;5031716;28;20482;-74
2022/04/04 12:05:48;;;;;;;11.80;8.10;;;;;;;;;;5029768;28;20164;-72
2022/04/04 12:08:15;;;;;;;13.00;9.50;;;;;;;;;;5039558;28;20071;-75
2022/04/04 12:10:42;;;;;;;11.70;8.77;;;;;;;;;;5037237;28;20122;-71
2022/04/04 12:13:12;;;;;;;11.90;8.55;;;;;;;;;;5039570;28;20032;-74
2022/04/04 12:15:40;;;;;;;14.77;9.57;;;;;;;;;;5030017;28;20021;-73
2022/04/04 12:18:09;;;;;;;12.02;8.02;;;;;;;;;;5035290;28;20037;-77
2022/04/04 12:20:39;;;;;;;13.07;8.40;;;;;;;;;;5031987;28;20034;-74
2022/04/04 12:25:54;;;;;;;11.50;9.57;;;;;;;;;;5029652;28;20119;-80
2022/04/04 12:28:29;;;;;;;12.80;8.93;;;;;;;;;;5037524;28;20044;-71
2022/04/04 12:30:55;;;;;;;16.80;10.88;;;;;;;;;;5038706;28;20060;-67
2022/04/04 12:33:32;;;;;;;18.17;11.15;;;;;;;;;;5035182;28;20029;-74
2022/04/04 12:35:58;;;;;;;16.70;8.80;;;;;;;;;;5029135;28;20482;-78
2022/04/04 12:38:26;;;;;;;24.13;15.70;;;;;;;;;;5033636;28;20104;-75
2022/04/04 12:41:09;;;;;;;11.20;8.65;;;;;;;;;;5028016;28;20022;-76
2022/04/04 12:43:39;;;;;;;11.50;8.20;;;;;;;;;;5030018;28;20136;-82
2022/04/04 12:46:07;;;;;;;15.95;8.45;;;;;;;;;;5028822;28;20550;-70
2022/04/04 12:48:34;;;;;;;12.65;8.50;;;;;;;;;;5031418;28;20379;-69
2022/04/04 12:51:00;;;;;;;12.60;8.48;;;;;;;;;;5032003;28;20110;-78
2022/04/04 12:53:26;;;;;;;14.75;8.80;;;;;;;;;;5032915;28;20035;-76
2022/04/04 12:56:03;;;;;;;15.25;8.65;;;;;;;;;;5028668;28;20072;-75
2022/04/04 12:58:29;;;;;;;15.43;9.00;;;;;;;;;;5032748;28;20048;-78
2022/04/04 13:00:56;;;;;;;14.07;9.02;;;;;;;;;;5036516;28;20374;-78
2022/04/04 13:03:25;;;;;;;11.20;8.43;;;;;;;;;;5028147;28;20045;-76
2022/04/04 13:05:58;;;;;;;10.70;7.72;;;;;;;;;;5032799;28;20658;-76
2022/04/04 13:08:24;;;;;;;11.73;8.10;;;;;;;;;;5021727;28;20061;-74
2022/04/04 13:11:05;;;;;;;12.25;8.18;;;;;;;;;;5022610;28;20034;-78
2022/04/04 13:13:33;;;;;;;16.15;8.82;;;;;;;;;;5028553;28;20021;-69
2022/04/04 13:15:59;;;;;;;12.75;8.60;;;;;;;;;;5030213;28;20036;-67
2022/04/04 13:18:25;;;;;;;10.82;8.07;;;;;;;;;;5035897;28;20033;-72
2022/04/04 13:20:55;;;;;;;10.15;7.68;;;;;;;;;;5030846;28;20128;-67
2022/04/04 13:23:23;;;;;;;11.05;8.90;;;;;;;;;;5035671;28;20052;-67
2022/04/04 13:25:50;;;;;;;10.40;7.95;;;;;;;;;;5038569;28;20029;-67
2022/04/04 13:28:17;;;;;;;13.73;8.77;;;;;;;;;;5039397;28;20040;-69
2022/04/04 13:30:43;;;;;;;18.27;8.45;;;;;;;;;;5038451;28;20049;-67
2022/04/04 13:33:09;;;;;;;12.07;8.25;;;;;;;;;;5034431;28;20044;-68
2022/04/04 13:35:36;;;;;;;13.10;9.10;;;;;;;;;;5033929;28;20104;-68
2022/04/04 13:38:02;;;;;;;9.80;8.38;;;;;;;;;;5032894;28;20033;-66
2022/04/04 13:40:31;;;;;;;11.88;9.02;;;;;;;;;;5034452;28;20386;-67
2022/04/04 13:42:57;;;;;;;10.80;8.85;;;;;;;;;;5036279;28;20132;-68
2022/04/04 13:45:23;;;;;;;9.88;8.77;;;;;;;;;;5036545;28;20048;-76
2022/04/04 13:47:50;;;;;;;12.18;8.57;;;;;;;;;;5043981;28;20029;-67
2022/04/04 13:50:16;;;;;;;10.75;8.57;;;;;;;;;;5036557;28;20033;-67
2022/04/04 13:52:43;;;;;;;10.15;8.48;;;;;;;;;;5031962;28;20486;-67
2022/04/04 13:55:10;;;;;;;10.77;8.57;;;;;;;;;;5046241;28;20382;-72
2022/04/04 13:57:36;;;;;;;11.68;9.25;;;;;;;;;;5044992;28;20029;-70
2022/04/04 14:00:03;;;;;;;11.82;9.00;;;;;;;;;;5036765;28;20025;-66
2022/04/04 14:02:29;;;;;;;12.43;8.55;;;;;;;;;;5033900;28;20037;-66
2022/04/04 14:04:57;;;;;;;11.00;8.30;;;;;;;;;;5049727;28;20040;-71
2022/04/04 14:07:23;;;;;;;11.35;9.50;;;;;;;;;;5039688;28;20412;-66
2022/04/04 14:09:49;;;;;;;13.48;9.07;;;;;;;;;;5036665;28;20486;-68
2022/04/04 14:12:23;;;;;;;10.65;8.52;;;;;;;;;;5040457;28;20025;-68
2022/04/04 14:14:49;;;;;;;11.88;9.05;;;;;;;;;;5032203;28;20553;-71
2022/04/04 14:17:16;;;;;;;15.43;11.02;;;;;;;;;;5038705;28;20524;-70
2022/04/04 14:19:42;;;;;;;12.60;8.95;;;;;;;;;;5035757;28;20095;-73
2022/04/04 14:22:09;;;;;;;19.42;13.63;;;;;;;;;;5028889;28;20124;-70
2022/04/04 14:24:35;;;;;;;10.68;9.48;;;;;;;;;;5032963;28;20538;-73
2022/04/04 14:27:04;;;;;;;10.95;8.32;;;;;;;;;;5031532;28;20042;-71
2022/04/04 14:29:30;;;;;;;12.82;8.82;;;;;;;;;;5033432;28;20040;-70
2022/04/04 14:31:56;;;;;;;11.98;9.00;;;;;;;;;;5035814;28;20025;-68
2022/04/04 14:34:22;;;;;;;10.90;8.70;;;;;;;;;;5045867;28;20077;-64
2022/04/04 14:36:48;;;;;;;14.63;9.25;;;;;;;;;;5046805;28;20471;-65
2022/04/04 14:39:15;;;;;;;10.88;8.48;;;;;;;;;;5047118;28;20056;-65